sensor_id;sensor_type;location;lat;lon;timestamp;P1;durP1;ratioP1;P2;durP2;ratioP2
15402;SDS011;7799;53.478;10.170;2023-02-28T00:01:27;1.50;;;1.40;;
15402;SDS011;7799;53.478;10.170;2023-02-28T00:03:53;1.60;;;1.40;;
15402;SDS011;7799;53.478;10.170;2023-02-28T00:06:21;1.37;;;1.27;;
15402;SDS011;7799;53.478;10.170;2023-02-28T00:08:49;1.47;;;1.33;;
15402;SDS011;7799;53.478;10.170;2023-02-28T00:11:16;1.43;;;1.33;;
15402;SDS011;7799;53.478;10.170;2023-02-28T00:13:44;1.67;;;1.27;;
15402;SDS011;7799;53.478;10.170;2023-02-28T00:16:13;1.20;;;1.20;;
15402;SDS011;7799;53.478;10.170;2023-02-28T00:18:41;1.53;;;1.43;;
15402;SDS011;7799;53.478;10.170;2023-02-28T00:21:08;1.50;;;1.40;;
15402;SDS011;7799;53.478;10.170;2023-02-28T00:23:35;1.67;;;1.23;;
15402;SDS011;7799;53.478;10.170;2023-02-28T00:26:02;1.23;;;1.20;;
15402;SDS011;7799;53.478;10.170;2023-02-28T00:28:29;1.50;;;1.40;;
15402;SDS011;7799;53.478;10.170;2023-02-28T00:30:59;1.80;;;1.70;;
15402;SDS011;7799;53.478;10.170;2023-02-28T00:33:26;1.30;;;1.20;;
15402;SDS011;7799;53.478;10.170;2023-02-28T00:36:00;1.60;;;1.50;;
15402;SDS011;7799;53.478;10.170;2023-02-28T00:38:29;1.50;;;1.40;;
15402;SDS011;7799;53.478;10.170;2023-02-28T00:40:55;2.13;;;1.60;;
15402;SDS011;7799;53.478;10.170;2023-02-28T00:43:24;1.60;;;1.50;;
15402;SDS011;7799;53.478;10.170;2023-02-28T00:45:50;1.57;;;1.47;;
15402;SDS011;7799;53.478;10.170;2023-02-28T00:48:18;1.80;;;1.70;;
15402;SDS011;7799;53.478;10.170;2023-02-28T00:50:47;1.60;;;1.50;;
15402;SDS011;7799;53.478;10.170;2023-02-28T00:53:14;1.70;;;1.47;;
15402;SDS011;7799;53.478;10.170;2023-02-28T00:55:41;1.37;;;1.27;;
15402;SDS011;7799;53.478;10.170;2023-02-28T00:58:08;1.80;;;1.70;;
15402;SDS011;7799;53.478;10.170;2023-02-28T01:00:34;1.90;;;1.80;;
15402;SDS011;7799;53.478;10.170;2023-02-28T01:03:01;1.70;;;1.60;;
15402;SDS011;7799;53.478;10.170;2023-02-28T01:05:29;1.73;;;1.50;;
15402;SDS011;7799;53.478;10.170;2023-02-28T01:07:56;1.53;;;1.43;;
15402;SDS011;7799;53.478;10.170;2023-02-28T01:10:22;1.70;;;1.60;;
15402;SDS011;7799;53.478;10.170;2023-02-28T01:12:49;1.73;;;1.63;;
15402;SDS011;7799;53.478;10.170;2023-02-28T01:15:16;1.70;;;1.60;;
15402;SDS011;7799;53.478;10.170;2023-02-28T01:17:44;1.50;;;1.40;;
15402;SDS011;7799;53.478;10.170;2023-02-28T01:20:10;1.50;;;1.40;;
15402;SDS011;7799;53.478;10.170;2023-02-28T01:22:39;1.97;;;1.70;;
15402;SDS011;7799;53.478;10.170;2023-02-28T01:25:07;1.33;;;1.23;;
15402;SDS011;7799;53.478;10.170;2023-02-28T01:27:34;1.50;;;1.40;;
15402;SDS011;7799;53.478;10.170;2023-02-28T01:30:01;1.50;;;1.40;;
15402;SDS011;7799;53.478;10.170;2023-02-28T01:32:27;1.37;;;1.23;;
15402;SDS011;7799;53.478;10.170;2023-02-28T01:34:54;1.50;;;1.40;;
15402;SDS011;7799;53.478;10.170;2023-02-28T01:37:22;1.50;;;1.20;;
15402;SDS011;7799;53.478;10.170;2023-02-28T01:39:50;1.40;;;1.30;;
15402;SDS011;7799;53.478;10.170;2023-02-28T01:42:20;1.30;;;1.20;;
15402;SDS011;7799;53.478;10.170;2023-02-28T01:44:55;1.40;;;1.30;;
15402;SDS011;7799;53.478;10.170;2023-02-28T01:47:24;1.77;;;1.47;;
15402;SDS011;7799;53.478;10.170;2023-02-28T01:49:52;1.20;;;1.20;;
15402;SDS011;7799;53.478;10.170;2023-02-28T01:52:19;1.23;;;1.20;;
15402;SDS011;7799;53.478;10.170;2023-02-28T01:54:47;1.57;;;1.47;;
15402;SDS011;7799;53.478;10.170;2023-02-28T01:57:18;1.40;;;1.30;;
15402;SDS011;7799;53.478;10.170;2023-02-28T01:59:49;1.50;;;1.40;;
15402;SDS011;7799;53.478;10.170;2023-02-28T02:02:19;1.17;;;1.10;;
15402;SDS011;7799;53.478;10.170;2023-02-28T02:04:50;0.90;;;0.90;;
15402;SDS011;7799;53.478;10.170;2023-02-28T02:07:20;1.73;;;1.63;;
15402;SDS011;7799;53.478;10.170;2023-02-28T02:09:47;1.80;;;1.70;;
15402;SDS011;7799;53.478;10.170;2023-02-28T02:12:18;1.30;;;1.30;;
15402;SDS011;7799;53.478;10.170;2023-02-28T02:14:54;1.57;;;1.47;;
15402;SDS011;7799;53.478;10.170;2023-02-28T02:17:27;1.97;;;1.50;;
15402;SDS011;7799;53.478;10.170;2023-02-28T02:20:05;1.40;;;1.20;;
15402;SDS011;7799;53.478;10.170;2023-02-28T02:25:59;1.20;;;1.10;;
15402;SDS011;7799;53.478;10.170;2023-02-28T02:31:51;1.23;;;1.13;;
15402;SDS011;7799;53.478;10.170;2023-02-28T02:34:41;1.10;;;1.00;;
15402;SDS011;7799;53.478;10.170;2023-02-28T02:37:17;1.60;;;1.27;;
15402;SDS011;7799;53.478;10.170;2023-02-28T02:39:51;1.23;;;1.10;;
15402;SDS011;7799;53.478;10.170;2023-02-28T02:42:21;1.40;;;1.30;;
15402;SDS011;7799;53.478;10.170;2023-02-28T02:44:53;1.30;;;1.20;;
15402;SDS011;7799;53.478;10.170;2023-02-28T02:47:25;1.20;;;1.10;;
15402;SDS011;7799;53.478;10.170;2023-02-28T02:49:55;1.30;;;1.20;;
15402;SDS011;7799;53.478;10.170;2023-02-28T02:52:25;1.00;;;1.00;;
15402;SDS011;7799;53.478;10.170;2023-02-28T02:54:56;1.50;;;1.40;;
15402;SDS011;7799;53.478;10.170;2023-02-28T02:57:25;1.37;;;1.27;;
15402;SDS011;7799;53.478;10.170;2023-02-28T02:59:53;1.67;;;1.10;;
15402;SDS011;7799;53.478;10.170;2023-02-28T03:02:21;1.47;;;1.37;;
15402;SDS011;7799;53.478;10.170;2023-02-28T03:04:49;1.10;;;1.10;;
15402;SDS011;7799;53.478;10.170;2023-02-28T03:07:21;1.23;;;1.23;;
15402;SDS011;7799;53.478;10.170;2023-02-28T03:09:51;1.50;;;1.40;;
15402;SDS011;7799;53.478;10.170;2023-02-28T03:12:18;1.40;;;1.30;;
15402;SDS011;7799;53.478;10.170;2023-02-28T03:14:50;1.57;;;1.13;;
15402;SDS011;7799;53.478;10.170;2023-02-28T03:17:30;1.30;;;1.20;;
15402;SDS011;7799;53.478;10.170;2023-02-28T03:20:11;1.60;;;1.27;;
15402;SDS011;7799;53.478;10.170;2023-02-28T03:22:46;0.97;;;0.97;;
15402;SDS011;7799;53.478;10.170;2023-02-28T03:25:20;0.90;;;0.90;;
15402;SDS011;7799;53.478;10.170;2023-02-28T03:27:52;0.97;;;0.97;;
15402;SDS011;7799;53.478;10.170;2023-02-28T03:30:22;0.90;;;0.90;;
15402;SDS011;7799;53.478;10.170;2023-02-28T03:32:52;0.90;;;0.90;;
15402;SDS011;7799;53.478;10.170;2023-02-28T03:35:22;1.00;;;1.00;;
15402;SDS011;7799;53.478;10.170;2023-02-28T03:37:51;0.80;;;0.80;;
15402;SDS011;7799;53.478;10.170;2023-02-28T03:40:20;0.80;;;0.80;;
15402;SDS011;7799;53.478;10.170;2023-02-28T03:42:49;1.10;;;1.00;;
15402;SDS011;7799;53.478;10.170;2023-02-28T03:45:18;1.90;;;1.23;;
15402;SDS011;7799;53.478;10.170;2023-02-28T03:47:49;1.40;;;1.30;;
15402;SDS011;7799;53.478;10.170;2023-02-28T03:50:19;0.90;;;0.90;;
15402;SDS011;7799;53.478;10.170;2023-02-28T03:52:49;1.73;;;1.20;;
15402;SDS011;7799;53.478;10.170;2023-02-28T03:55:19;1.33;;;1.23;;
15402;SDS011;7799;53.478;10.170;2023-02-28T03:57:51;1.10;;;1.10;;
15402;SDS011;7799;53.478;10.170;2023-02-28T04:00:25;1.50;;;1.40;;
15402;SDS011;7799;53.478;10.170;2023-02-28T04:02:54;1.13;;;1.03;;
15402;SDS011;7799;53.478;10.170;2023-02-28T04:05:21;1.20;;;1.10;;
15402;SDS011;7799;53.478;10.170;2023-02-28T04:07:48;0.90;;;0.90;;
15402;SDS011;7799;53.478;10.170;2023-02-28T04:10:17;1.33;;;1.23;;
15402;SDS011;7799;53.478;10.170;2023-02-28T04:12:44;1.03;;;1.03;;
15402;SDS011;7799;53.478;10.170;2023-02-28T04:15:10;1.00;;;0.90;;
15402;SDS011;7799;53.478;10.170;2023-02-28T04:17:37;1.20;;;1.20;;
15402;SDS011;7799;53.478;10.170;2023-02-28T04:20:04;0.93;;;0.93;;
15402;SDS011;7799;53.478;10.170;2023-02-28T04:22:34;0.90;;;0.90;;
15402;SDS011;7799;53.478;10.170;2023-02-28T04:25:01;1.10;;;1.10;;
15402;SDS011;7799;53.478;10.170;2023-02-28T04:27:30;1.20;;;1.10;;
15402;SDS011;7799;53.478;10.170;2023-02-28T04:29:56;0.87;;;0.87;;
15402;SDS011;7799;53.478;10.170;2023-02-28T04:32:23;1.03;;;0.93;;
15402;SDS011;7799;53.478;10.170;2023-02-28T04:34:50;1.10;;;1.10;;
15402;SDS011;7799;53.478;10.170;2023-02-28T04:37:16;1.17;;;1.17;;
15402;SDS011;7799;53.478;10.170;2023-02-28T04:39:43;1.47;;;1.37;;
15402;SDS011;7799;53.478;10.170;2023-02-28T04:42:10;1.40;;;1.30;;
15402;SDS011;7799;53.478;10.170;2023-02-28T04:44:38;1.30;;;1.20;;
15402;SDS011;7799;53.478;10.170;2023-02-28T04:47:04;1.50;;;1.40;;
15402;SDS011;7799;53.478;10.170;2023-02-28T04:49:31;1.60;;;1.50;;
15402;SDS011;7799;53.478;10.170;2023-02-28T04:51:57;1.93;;;1.60;;
15402;SDS011;7799;53.478;10.170;2023-02-28T04:54:24;1.63;;;1.53;;
15402;SDS011;7799;53.478;10.170;2023-02-28T04:56:51;1.40;;;1.30;;
15402;SDS011;7799;53.478;10.170;2023-02-28T04:59:18;1.47;;;1.37;;
15402;SDS011;7799;53.478;10.170;2023-02-28T05:01:47;1.20;;;1.10;;
15402;SDS011;7799;53.478;10.170;2023-02-28T05:04:14;1.07;;;1.03;;
15402;SDS011;7799;53.478;10.170;2023-02-28T05:06:41;1.63;;;1.30;;
15402;SDS011;7799;53.478;10.170;2023-02-28T05:09:08;1.37;;;1.27;;
15402;SDS011;7799;53.478;10.170;2023-02-28T05:11:36;1.17;;;1.13;;
15402;SDS011;7799;53.478;10.170;2023-02-28T05:14:05;1.20;;;1.10;;
15402;SDS011;7799;53.478;10.170;2023-02-28T05:16:32;1.37;;;1.27;;
15402;SDS011;7799;53.478;10.170;2023-02-28T05:19:00;1.20;;;1.10;;
15402;SDS011;7799;53.478;10.170;2023-02-28T05:21:28;1.00;;;1.00;;
15402;SDS011;7799;53.478;10.170;2023-02-28T05:23:56;1.00;;;1.00;;
15402;SDS011;7799;53.478;10.170;2023-02-28T05:26:24;1.10;;;1.00;;
15402;SDS011;7799;53.478;10.170;2023-02-28T05:28:51;1.60;;;1.50;;
15402;SDS011;7799;53.478;10.170;2023-02-28T05:31:18;1.50;;;1.40;;
15402;SDS011;7799;53.478;10.170;2023-02-28T05:33:44;1.50;;;1.40;;
15402;SDS011;7799;53.478;10.170;2023-02-28T05:36:12;1.70;;;1.40;;
15402;SDS011;7799;53.478;10.170;2023-02-28T05:38:39;1.50;;;1.20;;
15402;SDS011;7799;53.478;10.170;2023-02-28T05:41:06;1.20;;;1.17;;
15402;SDS011;7799;53.478;10.170;2023-02-28T05:43:33;1.10;;;1.07;;
15402;SDS011;7799;53.478;10.170;2023-02-28T05:46:02;1.13;;;1.10;;
15402;SDS011;7799;53.478;10.170;2023-02-28T05:48:29;0.93;;;0.93;;
15402;SDS011;7799;53.478;10.170;2023-02-28T05:50:56;1.30;;;1.20;;
15402;SDS011;7799;53.478;10.170;2023-02-28T05:53:25;1.10;;;1.10;;
15402;SDS011;7799;53.478;10.170;2023-02-28T05:55:52;1.30;;;1.20;;
15402;SDS011;7799;53.478;10.170;2023-02-28T05:58:19;1.13;;;1.07;;
15402;SDS011;7799;53.478;10.170;2023-02-28T06:00:45;1.43;;;1.33;;
15402;SDS011;7799;53.478;10.170;2023-02-28T06:03:12;1.07;;;1.03;;
15402;SDS011;7799;53.478;10.170;2023-02-28T06:05:39;1.30;;;1.20;;
15402;SDS011;7799;53.478;10.170;2023-02-28T06:08:05;1.10;;;1.10;;
15402;SDS011;7799;53.478;10.170;2023-02-28T06:10:33;1.10;;;1.10;;
15402;SDS011;7799;53.478;10.170;2023-02-28T06:13:00;1.33;;;1.23;;
15402;SDS011;7799;53.478;10.170;2023-02-28T06:15:28;1.10;;;1.10;;
15402;SDS011;7799;53.478;10.170;2023-02-28T06:17:55;1.20;;;1.10;;
15402;SDS011;7799;53.478;10.170;2023-02-28T06:20:23;1.80;;;1.60;;
15402;SDS011;7799;53.478;10.170;2023-02-28T06:22:51;1.47;;;1.40;;
15402;SDS011;7799;53.478;10.170;2023-02-28T06:25:19;1.23;;;1.13;;
15402;SDS011;7799;53.478;10.170;2023-02-28T06:27:47;1.30;;;1.23;;
15402;SDS011;7799;53.478;10.170;2023-02-28T06:30:14;1.40;;;1.30;;
15402;SDS011;7799;53.478;10.170;2023-02-28T06:32:41;1.10;;;1.10;;
15402;SDS011;7799;53.478;10.170;2023-02-28T06:35:08;1.23;;;1.13;;
15402;SDS011;7799;53.478;10.170;2023-02-28T06:37:35;1.20;;;1.10;;
15402;SDS011;7799;53.478;10.170;2023-02-28T06:40:02;1.07;;;1.07;;
15402;SDS011;7799;53.478;10.170;2023-02-28T06:42:31;1.70;;;1.60;;
15402;SDS011;7799;53.478;10.170;2023-02-28T06:44:59;1.60;;;1.50;;
15402;SDS011;7799;53.478;10.170;2023-02-28T06:47:28;1.60;;;1.50;;
15402;SDS011;7799;53.478;10.170;2023-02-28T06:49:56;1.83;;;1.70;;
15402;SDS011;7799;53.478;10.170;2023-02-28T06:52:23;1.30;;;1.20;;
15402;SDS011;7799;53.478;10.170;2023-02-28T06:54:50;1.50;;;1.40;;
15402;SDS011;7799;53.478;10.170;2023-02-28T06:57:24;1.87;;;1.50;;
15402;SDS011;7799;53.478;10.170;2023-02-28T06:59:51;1.77;;;1.67;;
15402;SDS011;7799;53.478;10.170;2023-02-28T07:02:19;1.70;;;1.60;;
15402;SDS011;7799;53.478;10.170;2023-02-28T07:04:46;2.30;;;2.10;;
15402;SDS011;7799;53.478;10.170;2023-02-28T07:07:12;1.97;;;1.83;;
15402;SDS011;7799;53.478;10.170;2023-02-28T07:09:39;2.00;;;1.90;;
15402;SDS011;7799;53.478;10.170;2023-02-28T07:12:06;2.10;;;1.90;;
15402;SDS011;7799;53.478;10.170;2023-02-28T07:14:32;1.77;;;1.67;;
15402;SDS011;7799;53.478;10.170;2023-02-28T07:16:59;1.70;;;1.60;;
15402;SDS011;7799;53.478;10.170;2023-02-28T07:19:27;1.70;;;1.60;;
15402;SDS011;7799;53.478;10.170;2023-02-28T07:21:54;1.93;;;1.83;;
15402;SDS011;7799;53.478;10.170;2023-02-28T07:24:20;2.73;;;2.53;;
15402;SDS011;7799;53.478;10.170;2023-02-28T07:26:50;2.10;;;2.00;;
15402;SDS011;7799;53.478;10.170;2023-02-28T07:29:17;2.10;;;2.00;;
15402;SDS011;7799;53.478;10.170;2023-02-28T07:31:44;2.17;;;2.07;;
15402;SDS011;7799;53.478;10.170;2023-02-28T07:34:11;2.53;;;2.33;;
15402;SDS011;7799;53.478;10.170;2023-02-28T07:36:39;4.27;;;3.50;;
15402;SDS011;7799;53.478;10.170;2023-02-28T07:39:06;4.03;;;3.63;;
15402;SDS011;7799;53.478;10.170;2023-02-28T07:41:34;4.07;;;3.67;;
15402;SDS011;7799;53.478;10.170;2023-02-28T07:44:04;4.70;;;4.30;;
15402;SDS011;7799;53.478;10.170;2023-02-28T07:46:31;6.17;;;5.67;;
15402;SDS011;7799;53.478;10.170;2023-02-28T07:49:00;7.50;;;6.27;;
15402;SDS011;7799;53.478;10.170;2023-02-28T07:51:28;7.10;;;6.40;;
15402;SDS011;7799;53.478;10.170;2023-02-28T07:53:56;6.50;;;5.90;;
15402;SDS011;7799;53.478;10.170;2023-02-28T07:56:22;7.63;;;5.77;;
15402;SDS011;7799;53.478;10.170;2023-02-28T07:58:49;6.20;;;5.60;;
15402;SDS011;7799;53.478;10.170;2023-02-28T08:01:16;5.60;;;5.10;;
15402;SDS011;7799;53.478;10.170;2023-02-28T08:03:44;5.03;;;4.53;;
15402;SDS011;7799;53.478;10.170;2023-02-28T08:06:15;5.67;;;5.00;;
15402;SDS011;7799;53.478;10.170;2023-02-28T08:08:43;4.73;;;4.33;;
15402;SDS011;7799;53.478;10.170;2023-02-28T08:11:11;3.87;;;3.57;;
15402;SDS011;7799;53.478;10.170;2023-02-28T08:13:37;3.43;;;3.13;;
15402;SDS011;7799;53.478;10.170;2023-02-28T08:16:04;3.43;;;3.20;;
15402;SDS011;7799;53.478;10.170;2023-02-28T08:18:32;3.70;;;3.40;;
15402;SDS011;7799;53.478;10.170;2023-02-28T08:20:58;3.23;;;3.03;;
15402;SDS011;7799;53.478;10.170;2023-02-28T08:23:25;3.17;;;2.87;;
15402;SDS011;7799;53.478;10.170;2023-02-28T08:25:54;3.40;;;3.10;;
15402;SDS011;7799;53.478;10.170;2023-02-28T08:28:23;3.77;;;3.47;;
15402;SDS011;7799;53.478;10.170;2023-02-28T08:30:49;3.60;;;3.07;;
15402;SDS011;7799;53.478;10.170;2023-02-28T08:33:16;2.87;;;2.67;;
15402;SDS011;7799;53.478;10.170;2023-02-28T08:35:43;2.53;;;2.43;;
15402;SDS011;7799;53.478;10.170;2023-02-28T08:38:09;2.83;;;2.60;;
15402;SDS011;7799;53.478;10.170;2023-02-28T08:40:36;2.67;;;2.47;;
15402;SDS011;7799;53.478;10.170;2023-02-28T08:43:03;3.23;;;2.93;;
15402;SDS011;7799;53.478;10.170;2023-02-28T08:45:31;2.80;;;2.60;;
15402;SDS011;7799;53.478;10.170;2023-02-28T08:47:57;2.97;;;2.67;;
15402;SDS011;7799;53.478;10.170;2023-02-28T08:50:24;3.07;;;2.77;;
15402;SDS011;7799;53.478;10.170;2023-02-28T08:52:51;2.60;;;2.40;;
15402;SDS011;7799;53.478;10.170;2023-02-28T08:55:17;3.50;;;3.20;;
15402;SDS011;7799;53.478;10.170;2023-02-28T08:57:44;3.00;;;2.70;;
15402;SDS011;7799;53.478;10.170;2023-02-28T09:00:11;3.30;;;3.00;;
15402;SDS011;7799;53.478;10.170;2023-02-28T09:02:40;3.13;;;2.90;;
15402;SDS011;7799;53.478;10.170;2023-02-28T09:05:08;2.33;;;2.13;;
15402;SDS011;7799;53.478;10.170;2023-02-28T09:07:35;4.00;;;2.50;;
15402;SDS011;7799;53.478;10.170;2023-02-28T09:10:02;2.90;;;2.70;;
15402;SDS011;7799;53.478;10.170;2023-02-28T09:12:32;3.23;;;2.57;;
15402;SDS011;7799;53.478;10.170;2023-02-28T09:15:00;2.57;;;2.37;;
15402;SDS011;7799;53.478;10.170;2023-02-28T09:17:27;2.57;;;2.30;;
15402;SDS011;7799;53.478;10.170;2023-02-28T09:19:55;2.63;;;2.43;;
15402;SDS011;7799;53.478;10.170;2023-02-28T09:22:22;2.10;;;1.93;;
15402;SDS011;7799;53.478;10.170;2023-02-28T09:24:48;1.93;;;1.83;;
15402;SDS011;7799;53.478;10.170;2023-02-28T09:27:15;2.07;;;1.97;;
15402;SDS011;7799;53.478;10.170;2023-02-28T09:29:41;2.03;;;1.90;;
15402;SDS011;7799;53.478;10.170;2023-02-28T09:32:08;2.03;;;1.83;;
15402;SDS011;7799;53.478;10.170;2023-02-28T09:34:35;1.60;;;1.50;;
15402;SDS011;7799;53.478;10.170;2023-02-28T09:37:03;1.97;;;1.87;;
15402;SDS011;7799;53.478;10.170;2023-02-28T09:39:30;2.17;;;1.80;;
15402;SDS011;7799;53.478;10.170;2023-02-28T09:41:57;1.70;;;1.60;;
15402;SDS011;7799;53.478;10.170;2023-02-28T09:44:26;1.40;;;1.30;;
15402;SDS011;7799;53.478;10.170;2023-02-28T09:46:56;1.50;;;1.40;;
15402;SDS011;7799;53.478;10.170;2023-02-28T09:49:27;1.40;;;1.30;;
15402;SDS011;7799;53.478;10.170;2023-02-28T09:51:58;1.90;;;1.67;;
15402;SDS011;7799;53.478;10.170;2023-02-28T09:54:29;1.70;;;1.60;;
15402;SDS011;7799;53.478;10.170;2023-02-28T09:56:59;1.70;;;1.60;;
15402;SDS011;7799;53.478;10.170;2023-02-28T09:59:34;1.70;;;1.60;;
15402;SDS011;7799;53.478;10.170;2023-02-28T10:02:16;1.50;;;1.40;;
15402;SDS011;7799;53.478;10.170;2023-02-28T10:04:49;1.43;;;1.33;;
15402;SDS011;7799;53.478;10.170;2023-02-28T10:07:22;1.30;;;1.20;;
15402;SDS011;7799;53.478;10.170;2023-02-28T10:10:01;1.40;;;1.27;;
15402;SDS011;7799;53.478;10.170;2023-02-28T10:12:31;1.00;;;1.00;;
15402;SDS011;7799;53.478;10.170;2023-02-28T10:14:58;1.23;;;1.17;;
15402;SDS011;7799;53.478;10.170;2023-02-28T10:17:29;1.20;;;1.10;;
15402;SDS011;7799;53.478;10.170;2023-02-28T10:20:04;1.00;;;1.00;;
15402;SDS011;7799;53.478;10.170;2023-02-28T10:22:37;1.10;;;1.00;;
15402;SDS011;7799;53.478;10.170;2023-02-28T10:25:15;0.90;;;0.90;;
15402;SDS011;7799;53.478;10.170;2023-02-28T10:27:43;0.80;;;0.80;;
15402;SDS011;7799;53.478;10.170;2023-02-28T10:30:11;1.00;;;0.90;;
15402;SDS011;7799;53.478;10.170;2023-02-28T10:32:39;0.97;;;0.87;;
15402;SDS011;7799;53.478;10.170;2023-02-28T10:35:09;0.80;;;0.80;;
15402;SDS011;7799;53.478;10.170;2023-02-28T10:37:41;1.00;;;0.87;;
15402;SDS011;7799;53.478;10.170;2023-02-28T10:40:24;1.00;;;0.90;;
15402;SDS011;7799;53.478;10.170;2023-02-28T10:42:56;1.27;;;0.80;;
15402;SDS011;7799;53.478;10.170;2023-02-28T10:45:24;1.13;;;0.83;;
15402;SDS011;7799;53.478;10.170;2023-02-28T10:47:53;0.77;;;0.77;;
15402;SDS011;7799;53.478;10.170;2023-02-28T10:50:29;0.70;;;0.70;;
15402;SDS011;7799;53.478;10.170;2023-02-28T10:53:05;0.83;;;0.83;;
15402;SDS011;7799;53.478;10.170;2023-02-28T10:55:38;0.77;;;0.77;;
15402;SDS011;7799;53.478;10.170;2023-02-28T10:58:12;0.60;;;0.60;;
15402;SDS011;7799;53.478;10.170;2023-02-28T11:00:46;0.87;;;0.87;;
15402;SDS011;7799;53.478;10.170;2023-02-28T11:03:23;0.70;;;0.70;;
15402;SDS011;7799;53.478;10.170;2023-02-28T11:05:54;0.90;;;0.90;;
15402;SDS011;7799;53.478;10.170;2023-02-28T11:08:22;1.10;;;1.00;;
15402;SDS011;7799;53.478;10.170;2023-02-28T11:10:54;1.07;;;1.03;;
15402;SDS011;7799;53.478;10.170;2023-02-28T11:13:24;0.90;;;0.90;;
15402;SDS011;7799;53.478;10.170;2023-02-28T11:15:53;1.10;;;1.00;;
15402;SDS011;7799;53.478;10.170;2023-02-28T11:18:23;1.20;;;1.00;;
15402;SDS011;7799;53.478;10.170;2023-02-28T11:20:51;0.90;;;0.90;;
15402;SDS011;7799;53.478;10.170;2023-02-28T11:23:19;0.97;;;0.97;;
15402;SDS011;7799;53.478;10.170;2023-02-28T11:25:47;0.90;;;0.90;;
15402;SDS011;7799;53.478;10.170;2023-02-28T11:28:27;1.00;;;1.00;;
15402;SDS011;7799;53.478;10.170;2023-02-28T11:31:00;1.33;;;1.10;;
15402;SDS011;7799;53.478;10.170;2023-02-28T11:33:29;1.10;;;1.00;;
15402;SDS011;7799;53.478;10.170;2023-02-28T11:35:58;1.10;;;1.10;;
15402;SDS011;7799;53.478;10.170;2023-02-28T11:38:26;1.10;;;1.00;;
15402;SDS011;7799;53.478;10.170;2023-02-28T11:40:59;1.30;;;1.20;;
15402;SDS011;7799;53.478;10.170;2023-02-28T11:43:36;1.20;;;1.10;;
15402;SDS011;7799;53.478;10.170;2023-02-28T11:46:11;2.23;;;1.33;;
15402;SDS011;7799;53.478;10.170;2023-02-28T11:48:48;1.00;;;1.00;;
15402;SDS011;7799;53.478;10.170;2023-02-28T11:51:21;1.97;;;1.17;;
15402;SDS011;7799;53.478;10.170;2023-02-28T11:54:01;1.40;;;1.30;;
15402;SDS011;7799;53.478;10.170;2023-02-28T11:56:36;1.17;;;1.10;;
15402;SDS011;7799;53.478;10.170;2023-02-28T11:59:10;1.53;;;1.00;;
15402;SDS011;7799;53.478;10.170;2023-02-28T12:02:02;1.30;;;1.20;;
15402;SDS011;7799;53.478;10.170;2023-02-28T12:04:40;1.07;;;1.07;;
15402;SDS011;7799;53.478;10.170;2023-02-28T12:07:15;1.20;;;1.10;;
15402;SDS011;7799;53.478;10.170;2023-02-28T12:09:47;0.97;;;0.97;;
15402;SDS011;7799;53.478;10.170;2023-02-28T12:12:21;1.23;;;1.10;;
15402;SDS011;7799;53.478;10.170;2023-02-28T12:14:57;1.10;;;1.00;;
15402;SDS011;7799;53.478;10.170;2023-02-28T12:17:35;1.10;;;1.00;;
15402;SDS011;7799;53.478;10.170;2023-02-28T12:20:11;1.27;;;1.17;;
15402;SDS011;7799;53.478;10.170;2023-02-28T12:22:43;1.10;;;1.10;;
15402;SDS011;7799;53.478;10.170;2023-02-28T12:25:24;1.20;;;1.10;;
15402;SDS011;7799;53.478;10.170;2023-02-28T12:28:01;0.90;;;0.90;;
15402;SDS011;7799;53.478;10.170;2023-02-28T12:30:31;1.10;;;1.00;;
15402;SDS011;7799;53.478;10.170;2023-02-28T12:33:01;1.17;;;1.07;;
15402;SDS011;7799;53.478;10.170;2023-02-28T12:35:32;1.00;;;1.00;;
15402;SDS011;7799;53.478;10.170;2023-02-28T12:38:02;1.23;;;1.13;;
15402;SDS011;7799;53.478;10.170;2023-02-28T12:40:32;0.97;;;0.93;;
15402;SDS011;7799;53.478;10.170;2023-02-28T12:43:09;1.30;;;1.13;;
15402;SDS011;7799;53.478;10.170;2023-02-28T12:45:41;1.07;;;1.00;;
15402;SDS011;7799;53.478;10.170;2023-02-28T12:48:10;0.90;;;0.90;;
15402;SDS011;7799;53.478;10.170;2023-02-28T12:50:41;0.90;;;0.90;;
15402;SDS011;7799;53.478;10.170;2023-02-28T12:53:09;0.80;;;0.80;;
15402;SDS011;7799;53.478;10.170;2023-02-28T12:55:40;1.07;;;0.97;;
15402;SDS011;7799;53.478;10.170;2023-02-28T12:58:15;1.00;;;1.00;;
15402;SDS011;7799;53.478;10.170;2023-02-28T13:00:53;0.83;;;0.83;;
15402;SDS011;7799;53.478;10.170;2023-02-28T13:03:51;1.00;;;0.80;;
15402;SDS011;7799;53.478;10.170;2023-02-28T13:06:34;0.80;;;0.80;;
15402;SDS011;7799;53.478;10.170;2023-02-28T13:09:08;0.90;;;0.90;;
15402;SDS011;7799;53.478;10.170;2023-02-28T13:11:39;1.00;;;1.00;;
15402;SDS011;7799;53.478;10.170;2023-02-28T13:14:16;0.90;;;0.90;;
15402;SDS011;7799;53.478;10.170;2023-02-28T13:16:53;0.90;;;0.90;;
15402;SDS011;7799;53.478;10.170;2023-02-28T13:19:22;1.10;;;0.90;;
15402;SDS011;7799;53.478;10.170;2023-02-28T13:21:50;0.80;;;0.80;;
15402;SDS011;7799;53.478;10.170;2023-02-28T13:24:41;0.90;;;0.90;;
15402;SDS011;7799;53.478;10.170;2023-02-28T13:27:22;0.90;;;0.90;;
15402;SDS011;7799;53.478;10.170;2023-02-28T13:29:51;0.90;;;0.90;;
15402;SDS011;7799;53.478;10.170;2023-02-28T13:35:15;0.80;;;0.80;;
15402;SDS011;7799;53.478;10.170;2023-02-28T13:44:07;1.00;;;1.00;;
15402;SDS011;7799;53.478;10.170;2023-02-28T13:46:36;1.00;;;1.00;;
15402;SDS011;7799;53.478;10.170;2023-02-28T13:49:27;1.40;;;1.30;;
15402;SDS011;7799;53.478;10.170;2023-02-28T13:52:02;0.90;;;0.90;;
15402;SDS011;7799;53.478;10.170;2023-02-28T13:54:40;1.30;;;1.20;;
15402;SDS011;7799;53.478;10.170;2023-02-28T13:57:20;1.20;;;1.10;;
15402;SDS011;7799;53.478;10.170;2023-02-28T13:59:53;1.33;;;1.20;;
15402;SDS011;7799;53.478;10.170;2023-02-28T14:02:53;1.57;;;1.47;;
15402;SDS011;7799;53.478;10.170;2023-02-28T14:05:30;1.63;;;1.33;;
15402;SDS011;7799;53.478;10.170;2023-02-28T14:07:58;1.17;;;1.00;;
15402;SDS011;7799;53.478;10.170;2023-02-28T14:10:28;1.20;;;1.03;;
15402;SDS011;7799;53.478;10.170;2023-02-28T14:12:58;1.40;;;1.30;;
15402;SDS011;7799;53.478;10.170;2023-02-28T14:15:35;1.40;;;1.30;;
15402;SDS011;7799;53.478;10.170;2023-02-28T14:18:05;1.53;;;1.20;;
15402;SDS011;7799;53.478;10.170;2023-02-28T14:20:42;1.10;;;1.00;;
15402;SDS011;7799;53.478;10.170;2023-02-28T14:23:10;1.50;;;1.40;;
15402;SDS011;7799;53.478;10.170;2023-02-28T14:25:44;1.50;;;1.40;;
15402;SDS011;7799;53.478;10.170;2023-02-28T14:28:19;1.63;;;1.53;;
15402;SDS011;7799;53.478;10.170;2023-02-28T14:30:52;1.20;;;1.10;;
15402;SDS011;7799;53.478;10.170;2023-02-28T14:33:29;2.50;;;1.40;;
15402;SDS011;7799;53.478;10.170;2023-02-28T14:36:12;2.13;;;1.50;;
15402;SDS011;7799;53.478;10.170;2023-02-28T14:38:43;1.70;;;1.60;;
15402;SDS011;7799;53.478;10.170;2023-02-28T14:41:16;1.53;;;1.43;;
15402;SDS011;7799;53.478;10.170;2023-02-28T14:43:54;1.53;;;1.43;;
15402;SDS011;7799;53.478;10.170;2023-02-28T14:46:22;1.83;;;1.60;;
15402;SDS011;7799;53.478;10.170;2023-02-28T14:48:50;1.63;;;1.50;;
15402;SDS011;7799;53.478;10.170;2023-02-28T14:51:21;2.87;;;1.90;;
15402;SDS011;7799;53.478;10.170;2023-02-28T14:53:50;2.00;;;1.80;;
15402;SDS011;7799;53.478;10.170;2023-02-28T14:56:22;1.83;;;1.73;;
15402;SDS011;7799;53.478;10.170;2023-02-28T14:58:51;1.60;;;1.50;;
15402;SDS011;7799;53.478;10.170;2023-02-28T15:01:19;1.50;;;1.40;;
15402;SDS011;7799;53.478;10.170;2023-02-28T15:03:47;2.37;;;1.97;;
15402;SDS011;7799;53.478;10.170;2023-02-28T15:06:14;2.00;;;1.90;;
15402;SDS011;7799;53.478;10.170;2023-02-28T15:08:44;2.10;;;1.90;;
15402;SDS011;7799;53.478;10.170;2023-02-28T15:11:12;2.03;;;1.50;;
15402;SDS011;7799;53.478;10.170;2023-02-28T15:13:40;1.57;;;1.50;;
15402;SDS011;7799;53.478;10.170;2023-02-28T15:16:10;2.33;;;1.93;;
15402;SDS011;7799;53.478;10.170;2023-02-28T15:18:42;2.17;;;2.00;;
15402;SDS011;7799;53.478;10.170;2023-02-28T15:21:12;1.80;;;1.70;;